Aeroporto :
LOGIN :

Iscrizione | Disclaimer

   EN    FR    IT 

 










Sommario :    VFR   VFR Marginale   IFR   IFR Intensivo   IFR Molto Intensivo
Visibilità : 
Base nubi : 
>= 8 km
>= 3000ft
5 / 8 km
1000 / 3000 ft
1500m / 5 km
500 / 1000 ft
800 / 1500m
200 / 500 ft
< 800m
< 200 ft
Simboli :   Temporali  Nebbia  Neve Forte  Precipitazioni Forti  Vento > 20 kt
SIGMETs :   Varie  Temporali  Ghiacco  Turbolenza  Onda orograficha  Ceneri Vulcaniche







- Altitudine del aeroporto : 1504 ft
- Codice IATA : PNA


LEPP - Noain Pamplona

ULTIMO METAR :
  • 172230Z AUTO 33011KT 300V360 9999 OVC033 18/14 Q1019

METARs OBSOLETI :
  • 172200Z 32010KT 9999 SCT018 SCT025 BKN032 18/14 Q1019
  • 172130Z 34010KT 9999 SCT018 SCT025 BKN032 19/14 Q1019
  • 172100Z 33013KT 9999 SCT018 SCT025 BKN030 19/14 Q1019
  • 172030Z 34011KT 9999 SCT018 SCT025 BKN030 19/14 Q1018
  • 172000Z 33014KT 9999 SCT018 SCT025 BKN032 19/14 Q1018

TAF TAF LEPP
Valido dal 17 a 21 ore il 18 a 21 ore UTC


172000Z 1721/1821 36012KT 9999 SCT020 TX26/1814Z TN14/1805Z
BECMG 1722/1802 30007KT
PROB30
TEMPO 1800/1806 BKN014
BECMG 1811/1813 36010KT
PROB30
TEMPO 1813/1819 32015G25KT
Nessun NOTAM noto per questo aeroporto.



MetMap, La meteo Aeronautica in un colpo d'occhio ! - Copyright ORBIFLY Dicembre 2007 - Disclaimer

ORBIFLY MET'MAP TEAM :

Programmazione e sviluppo : Alexandra Zaïnal
Concezione e sviluppo : Baudouin d'Aumeries
Co-Programmazione e sviluppo : Marc-Olivier Méhu
Supporto tecnico e logistico : Manuel Goepfert
Aiuto per la traduzione : Arnaldo La Scala

Contatto : metmap@orbifly.com




FONTI E CREDITI :

   NOAA